Fantasy — H3GS — position and weather

sailwx.info

Track history (hours):
 
Tides and Currents Weather Stations Pressure Air Temp Water Temp Dewpoint Dewpoint Depression Visibility Wind Speed Wind Dir Waves Ship Positions

Fantasy

Operator: Carnival Cruise Lines

Last reported at 2019-Feb-23 14:05 UTC. Time now 2019-Feb-23 17:07 UTC.
Position N 29°57' W 087°53'.

Type: Passenger vessel. MMSI: 353486000.

Date/timePositionNaut miles runAvg speedWind from/ knotsBaromVisibWave heightAir tempDewpointWater temp
2019-Feb-23 14:05N 29°57' W 087°53'4 3.8
2019-Feb-23 13:06N 30°00' W 087°54'4 1.5
2019-Feb-23 10:40N 29°57' W 087°51'12812.0
2019-Feb-23 00:00N 27°54' W 087°12'19317.6 120 / 201012.0 25.022.024.0
2019-Feb-22 13:00N 24°42' W 086°48'23919.0 130 / 241015.027.0 26.021.527.0
2019-Feb-22 00:24N 20°43' W 086°50'718.9
2019-Feb-22 00:00N 20°37' W 086°55'816.5
2019-Feb-21 23:30N 20°30' W 086°59'1 1.8
2019-Feb-21 22:56N 20°29' W 086°59'0 0.0
2019-Feb-21 22:26N 20°29' W 086°59'0 0.0
2019-Feb-21 21:56N 20°29' W 086°59'0 0.0
2019-Feb-21 21:26N 20°29' W 086°59'0 0.0
2019-Feb-21 20:56N 20°29' W 086°59'0 0.0
2019-Feb-21 20:26N 20°29' W 086°59'0 0.0
2019-Feb-21 19:56N 20°29' W 086°59'0 0.0
2019-Feb-21 19:26N 20°29' W 086°59'0 0.0
2019-Feb-21 18:56N 20°29' W 086°59'0 0.0
2019-Feb-21 18:26N 20°29' W 086°59'0 0.0
2019-Feb-21 17:56N 20°29' W 086°59'0 0.0
2019-Feb-21 17:26N 20°29' W 086°59'0 0.0
2019-Feb-21 16:56N 20°29' W 086°59'0 0.0
2019-Feb-21 16:26N 20°29' W 086°59'0 0.0
2019-Feb-21 15:56N 20°29' W 086°59'0 0.0
2019-Feb-21 15:26N 20°29' W 086°59'0 0.0
2019-Feb-21 14:56N 20°29' W 086°59'0 0.0
2019-Feb-21 14:31N 20°29' W 086°59'2 4.4
2019-Feb-21 14:00N 20°31' W 086°59'510.3
2019-Feb-21 13:31N 20°35' W 086°56'510.1
2019-Feb-21 13:00N 20°40' W 086°53'5 5.4
2019-Feb-21 12:00N 20°42' W 086°48'5518.4 120 / 351012.010.8 27.022.627.0
2019-Feb-21 09:00N 21°36' W 086°36'9217.6 120 / 301011.0 5.4 26.023.126.6
2019-Feb-21 03:48N 21°54' W 088°13'1318.3
2019-Feb-21 03:04N 21°55' W 088°27'3218.2
2019-Feb-21 01:21N 21°45' W 088°59'618.3
2019-Feb-21 01:00N 21°43' W 089°06'918.4
2019-Feb-21 00:30N 21°40' W 089°15'918.4
2019-Feb-21 00:00N 21°37' W 089°24'918.1
2019-Feb-20 23:30N 21°33' W 089°33'917.8
2019-Feb-20 23:00N 21°29' W 089°42'713.4
2019-Feb-20 22:31N 21°22' W 089°41'2 3.7
2019-Feb-20 21:59N 21°20' W 089°41'0 0.0
2019-Feb-20 21:29N 21°20' W 089°41'0 0.0
2019-Feb-20 20:59N 21°20' W 089°41'0 0.0
2019-Feb-20 20:29N 21°20' W 089°41'0 0.0
2019-Feb-20 19:59N 21°20' W 089°41'0 0.0
2019-Feb-20 19:29N 21°20' W 089°41'0 0.0
2019-Feb-20 18:59N 21°20' W 089°41'0 0.0
2019-Feb-20 18:29N 21°20' W 089°41'0 0.0
2019-Feb-20 17:59N 21°20' W 089°41'0 0.0
2019-Feb-20 17:29N 21°20' W 089°41'0 0.0
2019-Feb-20 16:54N 21°20' W 089°41'0 0.0
2019-Feb-20 16:23N 21°20' W 089°41'0 0.0
2019-Feb-20 15:59N 21°20' W 089°41'0 0.0
2019-Feb-20 15:29N 21°20' W 089°41'0 0.0
2019-Feb-20 14:56N 21°20' W 089°41'0 0.0
2019-Feb-20 14:29N 21°20' W 089°41'0 0.0
2019-Feb-20 13:59N 21°20' W 089°41'0 0.3
2019-Feb-20 13:30N 21°20' W 089°41'3 5.1
2019-Feb-20 13:00N 21°23' W 089°41'5 9.7
2019-Feb-20 12:30N 21°28' W 089°42'713.3
2019-Feb-20 12:01N 21°34' W 089°43'714.9
2019-Feb-20 11:31N 21°41' W 089°46'815.0
2019-Feb-20 11:00N 21°48' W 089°50'1215.1
2019-Feb-20 10:10N 21°59' W 089°56'1015.1
2019-Feb-20 09:29N 22°08' W 090°02'815.1
2019-Feb-20 08:55N 22°16' W 090°06'715.1
2019-Feb-20 08:29N 22°22' W 090°09'816.3
2019-Feb-20 07:58N 22°30' W 090°11'31916.8
2019-Feb-19 13:00N 27°30' W 088°12'68 1.9 110 / 201017.0 2.2 23.021.521.0
2019-Feb-18 01:00N 28°12' W 087°12'18714.4 160 / 101011.0 5.4 25.022.022.9
2019-Feb-17 12:00N 25°06' W 086°48'24121.9 160 / 201010.010.8 25.022.026.0
2019-Feb-17 01:00N 21°06' W 086°30'2919.4 140 / 201009.010.8 26.019.926.9
2019-Feb-16 23:30N 20°44' W 086°50'1020.8
2019-Feb-16 23:00N 20°35' W 086°56'612.0
2019-Feb-16 22:30N 20°30' W 086°59'1 2.6
2019-Feb-16 22:00N 20°29' W 086°59'0 0.0
2019-Feb-16 21:30N 20°29' W 086°59'0 0.0
2019-Feb-16 21:00N 20°29' W 086°59'0 0.0
2019-Feb-16 20:30N 20°29' W 086°59'0 0.0
2019-Feb-16 20:00N 20°29' W 086°59'0 0.0
2019-Feb-16 19:27N 20°29' W 086°59'0 0.0
2019-Feb-16 19:00N 20°29' W 086°59'0 0.0
2019-Feb-16 18:30N 20°29' W 086°59'0 0.0
2019-Feb-16 18:00N 20°29' W 086°59'0 0.0
2019-Feb-16 17:30N 20°29' W 086°59'0 0.0
2019-Feb-16 17:00N 20°29' W 086°59'0 0.0
2019-Feb-16 16:27N 20°29' W 086°59'0 0.0
2019-Feb-16 16:00N 20°29' W 086°59'0 0.0
2019-Feb-16 15:30N 20°29' W 086°59'0 0.0
2019-Feb-16 15:00N 20°29' W 086°59'0 0.0
2019-Feb-16 14:29N 20°29' W 086°59'0 0.0
2019-Feb-16 14:00N 20°29' W 086°59'0 0.0
2019-Feb-16 13:30N 20°29' W 086°59'3 5.8
2019-Feb-16 13:00N 20°32' W 086°59'4 8.6
2019-Feb-16 12:30N 20°35' W 086°56'510.5
2019-Feb-16 12:00N 20°39' W 086°53'5 9.5
2019-Feb-16 11:30N 20°43' W 086°50'15614.8
2019-Feb-16 01:00N 23°18' W 087°12'5814.6 120 / 61013.010.8 25.017.027.0
2019-Feb-15 21:00N 24°12' W 087°36'183 3.8 160 / 61017.010.8 25.017.024.4
2019-Feb-13 21:00N 27°12' W 087°00'   030 / 301019.010.8 18.010.623.1
Track history (hours):
 
Tides and Currents Weather Stations Pressure Air Temp Water Temp Dewpoint Dewpoint Depression Visibility Wind Speed Wind Dir Waves Ship Positions

Fantasy

Operator: Carnival Cruise Lines

Last reported at 2019-Feb-23 14:05 UTC. Time now 2019-Feb-23 17:07 UTC.
Position N 29°57' W 087°53'.

Type: Passenger vessel. MMSI: 353486000.

Date/timePositionNaut miles runAvg speedWind from/ knotsBaromVisibWave heightAir tempDewpointWater temp
2019-Feb-23 14:05N 29°57' W 087°53'4 3.8
2019-Feb-23 13:06N 30°00' W 087°54'4 1.5
2019-Feb-23 10:40N 29°57' W 087°51'12812.0
2019-Feb-23 00:00N 27°54' W 087°12'19317.6 120 / 201012.0 25.022.024.0
2019-Feb-22 13:00N 24°42' W 086°48'23919.0 130 / 241015.027.0 26.021.527.0
2019-Feb-22 00:24N 20°43' W 086°50'718.9
2019-Feb-22 00:00N 20°37' W 086°55'816.5
2019-Feb-21 23:30N 20°30' W 086°59'1 1.8
2019-Feb-21 22:56N 20°29' W 086°59'0 0.0
2019-Feb-21 22:26N 20°29' W 086°59'0 0.0
2019-Feb-21 21:56N 20°29' W 086°59'0 0.0
2019-Feb-21 21:26N 20°29' W 086°59'0 0.0
2019-Feb-21 20:56N 20°29' W 086°59'0 0.0
2019-Feb-21 20:26N 20°29' W 086°59'0 0.0
2019-Feb-21 19:56N 20°29' W 086°59'0 0.0
2019-Feb-21 19:26N 20°29' W 086°59'0 0.0
2019-Feb-21 18:56N 20°29' W 086°59'0 0.0
2019-Feb-21 18:26N 20°29' W 086°59'0 0.0
2019-Feb-21 17:56N 20°29' W 086°59'0 0.0
2019-Feb-21 17:26N 20°29' W 086°59'0 0.0
2019-Feb-21 16:56N 20°29' W 086°59'0 0.0
2019-Feb-21 16:26N 20°29' W 086°59'0 0.0
2019-Feb-21 15:56N 20°29' W 086°59'0 0.0
2019-Feb-21 15:26N 20°29' W 086°59'0 0.0
2019-Feb-21 14:56N 20°29' W 086°59'0 0.0
2019-Feb-21 14:31N 20°29' W 086°59'2 4.4
2019-Feb-21 14:00N 20°31' W 086°59'510.3
2019-Feb-21 13:31N 20°35' W 086°56'510.1
2019-Feb-21 13:00N 20°40' W 086°53'5 5.4
2019-Feb-21 12:00N 20°42' W 086°48'5518.4 120 / 351012.010.8 27.022.627.0
2019-Feb-21 09:00N 21°36' W 086°36'9217.6 120 / 301011.0 5.4 26.023.126.6
2019-Feb-21 03:48N 21°54' W 088°13'1318.3
2019-Feb-21 03:04N 21°55' W 088°27'3218.2
2019-Feb-21 01:21N 21°45' W 088°59'618.3
2019-Feb-21 01:00N 21°43' W 089°06'918.4
2019-Feb-21 00:30N 21°40' W 089°15'918.4
2019-Feb-21 00:00N 21°37' W 089°24'918.1
2019-Feb-20 23:30N 21°33' W 089°33'917.8
2019-Feb-20 23:00N 21°29' W 089°42'713.4
2019-Feb-20 22:31N 21°22' W 089°41'2 3.7
2019-Feb-20 21:59N 21°20' W 089°41'0 0.0
2019-Feb-20 21:29N 21°20' W 089°41'0 0.0
2019-Feb-20 20:59N 21°20' W 089°41'0 0.0
2019-Feb-20 20:29N 21°20' W 089°41'0 0.0
2019-Feb-20 19:59N 21°20' W 089°41'0 0.0
2019-Feb-20 19:29N 21°20' W 089°41'0 0.0
2019-Feb-20 18:59N 21°20' W 089°41'0 0.0
2019-Feb-20 18:29N 21°20' W 089°41'0 0.0
2019-Feb-20 17:59N 21°20' W 089°41'0 0.0
2019-Feb-20 17:29N 21°20' W 089°41'0 0.0
2019-Feb-20 16:54N 21°20' W 089°41'0 0.0
2019-Feb-20 16:23N 21°20' W 089°41'0 0.0
2019-Feb-20 15:59N 21°20' W 089°41'0 0.0
2019-Feb-20 15:29N 21°20' W 089°41'0 0.0
2019-Feb-20 14:56N 21°20' W 089°41'0 0.0
2019-Feb-20 14:29N 21°20' W 089°41'0 0.0
2019-Feb-20 13:59N 21°20' W 089°41'0 0.3
2019-Feb-20 13:30N 21°20' W 089°41'3 5.1
2019-Feb-20 13:00N 21°23' W 089°41'5 9.7
2019-Feb-20 12:30N 21°28' W 089°42'713.3
2019-Feb-20 12:01N 21°34' W 089°43'714.9
2019-Feb-20 11:31N 21°41' W 089°46'815.0
2019-Feb-20 11:00N 21°48' W 089°50'1215.1
2019-Feb-20 10:10N 21°59' W 089°56'1015.1
2019-Feb-20 09:29N 22°08' W 090°02'815.1
2019-Feb-20 08:55N 22°16' W 090°06'715.1
2019-Feb-20 08:29N 22°22' W 090°09'816.3
2019-Feb-20 07:58N 22°30' W 090°11'31916.8
2019-Feb-19 13:00N 27°30' W 088°12'68 1.9 110 / 201017.0 2.2 23.021.521.0
2019-Feb-18 01:00N 28°12' W 087°12'18714.4 160 / 101011.0 5.4 25.022.022.9
2019-Feb-17 12:00N 25°06' W 086°48'24121.9 160 / 201010.010.8 25.022.026.0
2019-Feb-17 01:00N 21°06' W 086°30'2919.4 140 / 201009.010.8 26.019.926.9
2019-Feb-16 23:30N 20°44' W 086°50'1020.8
2019-Feb-16 23:00N 20°35' W 086°56'612.0
2019-Feb-16 22:30N 20°30' W 086°59'1 2.6
2019-Feb-16 22:00N 20°29' W 086°59'0 0.0
2019-Feb-16 21:30N 20°29' W 086°59'0 0.0
2019-Feb-16 21:00N 20°29' W 086°59'0 0.0
2019-Feb-16 20:30N 20°29' W 086°59'0 0.0
2019-Feb-16 20:00N 20°29' W 086°59'0 0.0
2019-Feb-16 19:27N 20°29' W 086°59'0 0.0
2019-Feb-16 19:00N 20°29' W 086°59'0 0.0
2019-Feb-16 18:30N 20°29' W 086°59'0 0.0
2019-Feb-16 18:00N 20°29' W 086°59'0 0.0
2019-Feb-16 17:30N 20°29' W 086°59'0 0.0
2019-Feb-16 17:00N 20°29' W 086°59'0 0.0
2019-Feb-16 16:27N 20°29' W 086°59'0 0.0
2019-Feb-16 16:00N 20°29' W 086°59'0 0.0
2019-Feb-16 15:30N 20°29' W 086°59'0 0.0
2019-Feb-16 15:00N 20°29' W 086°59'0 0.0
2019-Feb-16 14:29N 20°29' W 086°59'0 0.0
2019-Feb-16 14:00N 20°29' W 086°59'0 0.0
2019-Feb-16 13:30N 20°29' W 086°59'3 5.8
2019-Feb-16 13:00N 20°32' W 086°59'4 8.6
2019-Feb-16 12:30N 20°35' W 086°56'510.5
2019-Feb-16 12:00N 20°39' W 086°53'5 9.5
2019-Feb-16 11:30N 20°43' W 086°50'15614.8
2019-Feb-16 01:00N 23°18' W 087°12'5814.6 120 / 61013.010.8 25.017.027.0
2019-Feb-15 21:00N 24°12' W 087°36'183 3.8 160 / 61017.010.8 25.017.024.4
2019-Feb-13 21:00N 27°12' W 087°00'   030 / 301019.010.8 18.010.623.1

Dump ship's entire track history